Time;durP1;ratioP1;P1;durP2;ratioP2;P2;SDS_P1;SDS_P2;PMS_P1;PMS_P2;Temp;Humidity;BMP_temperature;BMP_pressure;BME280_temperature;BME280_humidity;BME280_pressure;Samples;Min_cycle;Max_cycle;Signal;HPM_P1;HPM_P2
2023/03/13 00:01:43;;;;;;;13.63;4.67;;;11.40;99.90;;;;;;5072739;28;20173;-73
2023/03/13 00:04:12;;;;;;;16.87;5.40;;;11.40;99.90;;;;;;5072853;28;20165;-72
2023/03/13 00:06:38;;;;;;;11.33;4.43;;;11.40;99.90;;;;;;5072764;28;20161;-73
2023/03/13 00:09:09;;;;;;;14.57;5.33;;;11.40;99.90;;;;;;5072375;28;20188;-73
2023/03/13 00:11:35;;;;;;;14.80;5.93;;;11.40;99.90;;;;;;5072295;28;20620;-73
2023/03/13 00:14:02;;;;;;;11.43;5.40;;;11.40;99.90;;;;;;5071895;28;20224;-74
2023/03/13 00:16:28;;;;;;;17.73;5.70;;;11.40;99.90;;;;;;5072552;28;20631;-73
2023/03/13 00:18:56;;;;;;;13.47;5.30;;;11.50;99.90;;;;;;5054391;28;20168;-74
2023/03/13 00:21:24;;;;;;;10.70;5.23;;;11.50;99.90;;;;;;5072626;28;20282;-73
2023/03/13 00:23:50;;;;;;;13.23;5.40;;;11.50;99.90;;;;;;5072315;28;20207;-73
2023/03/13 00:26:18;;;;;;;17.17;5.27;;;11.50;99.90;;;;;;5072353;28;20169;-73
2023/03/13 00:28:44;;;;;;;12.30;5.30;;;11.50;99.90;;;;;;5072385;28;20177;-73
2023/03/13 00:31:13;;;;;;;10.57;4.50;;;11.50;99.90;;;;;;5054420;28;20172;-73
2023/03/13 00:33:42;;;;;;;13.87;5.63;;;11.50;99.90;;;;;;5072388;28;20252;-73
2023/03/13 00:36:16;;;;;;;14.30;5.20;;;11.50;99.90;;;;;;5072415;28;20620;-74
2023/03/13 00:38:42;;;;;;;10.43;5.30;;;11.50;99.90;;;;;;5054251;28;20263;-74
2023/03/13 00:41:13;;;;;;;12.47;5.17;;;11.50;99.90;;;;;;5072201;28;20288;-73
2023/03/13 00:43:41;;;;;;;12.20;5.67;;;11.50;99.90;;;;;;5072337;28;20169;-73
2023/03/13 00:46:07;;;;;;;14.50;6.30;;;11.50;99.90;;;;;;5072567;28;20220;-73
2023/03/13 00:48:33;;;;;;;9.70;4.73;;;11.50;99.90;;;;;;5072361;28;20192;-73
2023/03/13 00:51:00;;;;;;;13.30;5.70;;;11.50;99.90;;;;;;5076141;28;20628;-73
2023/03/13 00:53:26;;;;;;;9.83;5.40;;;11.50;99.90;;;;;;5075570;28;20549;-72
2023/03/13 00:55:59;;;;;;;11.33;5.20;;;11.50;99.90;;;;;;5076007;28;20299;-74
2023/03/13 00:58:29;;;;;;;9.83;4.87;;;11.50;99.90;;;;;;5058045;28;20173;-74
2023/03/13 01:00:55;;;;;;;7.13;5.40;;;11.50;99.90;;;;;;5075998;28;20216;-74
2023/03/13 01:03:26;;;;;;;13.03;5.20;;;11.50;99.90;;;;;;5075688;28;20181;-74
2023/03/13 01:06:01;;;;;;;11.70;5.50;;;11.50;99.90;;;;;;5075608;28;20180;-73
2023/03/13 01:08:28;;;;;;;10.33;5.80;;;11.50;99.90;;;;;;5075226;28;20187;-73
2023/03/13 01:11:01;;;;;;;10.13;6.17;;;11.60;99.90;;;;;;5075766;28;20161;-73
2023/03/13 01:13:29;;;;;;;10.73;6.83;;;11.60;99.90;;;;;;5075058;28;20173;-73
2023/03/13 01:15:54;;;;;;;11.67;7.13;;;11.60;99.90;;;;;;5075641;28;20173;-73
2023/03/13 01:18:20;;;;;;;11.20;7.20;;;11.70;99.90;;;;;;5075421;28;20670;-73
2023/03/13 01:20:46;;;;;;;11.67;7.77;;;11.70;99.90;;;;;;5075456;28;20208;-73
2023/03/13 01:23:11;;;;;;;12.57;7.47;;;11.80;99.90;;;;;;5075074;28;20251;-73
2023/03/13 01:25:37;;;;;;;14.87;8.07;;;11.70;99.90;;;;;;5075146;28;20164;-73
2023/03/13 01:28:03;;;;;;;10.00;7.63;;;11.80;99.90;;;;;;5075401;28;20207;-73
2023/03/13 01:30:29;;;;;;;14.63;8.20;;;11.90;99.90;;;;;;5075401;28;20653;-73
2023/03/13 01:32:55;;;;;;;11.43;7.93;;;11.80;99.90;;;;;;5075183;28;20169;-72
2023/03/13 01:35:20;;;;;;;10.50;8.17;;;11.80;99.90;;;;;;5074852;28;20199;-73
2023/03/13 01:37:46;;;;;;;14.53;8.07;;;11.90;99.90;;;;;;5074664;28;20172;-73
2023/03/13 01:40:12;;;;;;;11.13;7.60;;;11.90;99.90;;;;;;5074788;28;20219;-73
2023/03/13 01:42:56;;;;;;;12.07;7.53;;;11.90;99.90;;;;;;5075035;28;20175;-73
2023/03/13 01:45:58;;;;;;;11.50;8.07;;;12.00;99.90;;;;;;5075045;28;20176;-72
2023/03/13 01:48:50;;;;;;;11.67;8.40;;;12.00;99.90;;;;;;5074867;28;20169;-73
2023/03/13 01:51:37;;;;;;;11.60;7.80;;;12.00;99.90;;;;;;5074725;28;20262;-73
2023/03/13 01:54:12;;;;;;;9.20;7.47;;;12.00;99.90;;;;;;5074612;28;20172;-73
2023/03/13 01:56:55;;;;;;;11.80;8.87;;;12.10;99.90;;;;;;5057180;28;20187;-72
2023/03/13 01:59:39;;;;;;;10.03;8.27;;;12.10;99.90;;;;;;5056702;28;20253;-73
2023/03/13 02:02:05;;;;;;;12.47;7.83;;;12.10;99.90;;;;;;5074779;28;20655;-72
2023/03/13 02:04:36;;;;;;;9.40;7.27;;;12.10;99.90;;;;;;5074325;28;20192;-73
2023/03/13 02:07:05;;;;;;;7.77;6.73;;;12.20;99.90;;;;;;5055839;28;20176;-73
2023/03/13 02:09:33;;;;;;;10.97;7.37;;;12.20;99.90;;;;;;5074517;28;20204;-73
2023/03/13 02:12:11;;;;;;;10.60;7.53;;;12.20;99.90;;;;;;5074496;28;20265;-73
2023/03/13 02:14:43;;;;;;;7.30;6.60;;;12.30;99.90;;;;;;5074134;28;20212;-74
2023/03/13 02:17:09;;;;;;;9.90;6.83;;;12.30;99.90;;;;;;5074317;28;20177;-73
2023/03/13 02:19:53;;;;;;;8.20;7.20;;;12.40;99.90;;;;;;5056055;28;20208;-73
2023/03/13 02:22:25;;;;;;;6.57;5.97;;;12.40;99.90;;;;;;5073991;28;20175;-73
2023/03/13 02:25:08;;;;;;;6.27;5.60;;;12.50;99.90;;;;;;5074308;28;20360;-73
2023/03/13 02:27:33;;;;;;;8.23;5.67;;;12.50;99.90;;;;;;5074236;28;20171;-73
2023/03/13 02:30:00;;;;;;;6.13;5.60;;;12.50;99.90;;;;;;5074289;28;20247;-73
2023/03/13 02:32:28;;;;;;;5.80;5.20;;;12.60;99.90;;;;;;5073905;28;20261;-73
2023/03/13 02:35:00;;;;;;;5.80;5.23;;;12.70;99.90;;;;;;5073460;28;20204;-73
2023/03/13 02:37:29;;;;;;;5.47;4.97;;;12.70;99.90;;;;;;5074033;28;20636;-74
2023/03/13 02:39:56;;;;;;;7.10;5.13;;;12.80;99.90;;;;;;5073744;28;20250;-73
2023/03/13 02:42:22;;;;;;;5.53;5.03;;;12.90;99.90;;;;;;5073891;28;20196;-73
2023/03/13 02:44:50;;;;;;;6.33;5.10;;;13.00;99.90;;;;;;5073826;28;20157;-73
2023/03/13 02:47:23;;;;;;;5.53;5.00;;;13.00;99.90;;;;;;5073839;28;20250;-73
2023/03/13 02:49:49;;;;;;;6.63;4.70;;;13.10;99.90;;;;;;5073548;28;20168;-73
2023/03/13 02:52:38;;;;;;;7.27;5.60;;;13.10;99.90;;;;;;5073633;28;20218;-74
2023/03/13 02:55:09;;;;;;;7.67;4.73;;;13.20;99.90;;;;;;5073580;28;20654;-74
2023/03/13 02:57:35;;;;;;;7.03;4.80;;;13.20;99.90;;;;;;5073542;28;20176;-74
2023/03/13 03:00:01;;;;;;;6.40;4.30;;;13.20;99.90;;;;;;5055556;28;20212;-73
2023/03/13 03:02:26;;;;;;;6.60;4.73;;;13.30;99.90;;;;;;5073475;28;20168;-73
2023/03/13 03:04:52;;;;;;;4.60;4.20;;;13.30;99.90;;;;;;5072933;28;20183;-74
2023/03/13 03:07:18;;;;;;;5.13;4.43;;;13.40;99.90;;;;;;5073459;28;20165;-74
2023/03/13 03:09:43;;;;;;;4.27;3.87;;;13.40;99.90;;;;;;5073380;28;20188;-74
2023/03/13 03:12:09;;;;;;;5.07;4.10;;;13.40;99.90;;;;;;5072741;28;20574;-73
2023/03/13 03:14:35;;;;;;;6.80;4.37;;;13.40;99.90;;;;;;5072992;28;20228;-74
2023/03/13 03:17:00;;;;;;;4.90;4.00;;;13.40;99.90;;;;;;5073335;28;20188;-74
2023/03/13 03:19:26;;;;;;;4.57;3.80;;;13.40;99.90;;;;;;5072761;28;20242;-73
2023/03/13 03:21:52;;;;;;;4.00;3.60;;;13.50;99.90;;;;;;5073433;28;20180;-74
2023/03/13 03:24:20;;;;;;;4.90;4.00;;;13.50;99.90;;;;;;5073320;28;20578;-74
2023/03/13 03:26:46;;;;;;;4.27;3.87;;;13.50;99.90;;;;;;5073301;28;20161;-74
2023/03/13 03:29:11;;;;;;;5.13;3.80;;;13.50;99.90;;;;;;5073206;28;20499;-74
2023/03/13 03:31:40;;;;;;;3.60;3.30;;;13.60;99.90;;;;;;5072798;28;20254;-74
2023/03/13 03:34:05;;;;;;;4.27;3.40;;;13.60;99.90;;;;;;5072736;28;20173;-73
2023/03/13 03:36:31;;;;;;;3.70;3.40;;;13.60;99.90;;;;;;5073487;28;20172;-74
2023/03/13 03:38:57;;;;;;;5.07;3.70;;;13.60;99.90;;;;;;5072822;28;20169;-74
2023/03/13 03:41:25;;;;;;;3.97;3.10;;;13.50;99.90;;;;;;5072443;28;20208;-73
2023/03/13 03:43:51;;;;;;;3.83;3.53;;;13.60;99.90;;;;;;5072978;28;20164;-73
2023/03/13 03:46:19;;;;;;;4.70;3.50;;;13.60;99.90;;;;;;5072988;28;20161;-73
2023/03/13 03:48:45;;;;;;;3.83;3.10;;;13.60;99.90;;;;;;5054566;28;20181;-73
2023/03/13 03:51:11;;;;;;;4.60;3.17;;;13.70;99.90;;;;;;5054752;28;20177;-73
2023/03/13 03:53:36;;;;;;;3.67;3.03;;;13.60;99.90;;;;;;5072876;28;20502;-73
2023/03/13 03:56:02;;;;;;;5.80;3.80;;;13.70;99.90;;;;;;5054888;28;20173;-72
2023/03/13 03:58:27;;;;;;;5.10;3.20;;;13.70;99.90;;;;;;5072676;28;20169;-72
2023/03/13 04:00:56;;;;;;;5.57;3.53;;;13.70;99.90;;;;;;5072755;28;20215;-73
2023/03/13 04:03:21;;;;;;;4.57;3.40;;;13.70;99.90;;;;;;5072485;28;20176;-72
2023/03/13 04:05:50;;;;;;;3.77;3.23;;;13.70;99.90;;;;;;5072710;28;20181;-74
2023/03/13 04:08:16;;;;;;;5.07;3.17;;;13.70;99.90;;;;;;5073077;28;20180;-72
2023/03/13 04:10:41;;;;;;;4.13;3.20;;;13.70;99.90;;;;;;5072447;28;20196;-72
2023/03/13 04:13:07;;;;;;;3.30;2.90;;;13.70;99.90;;;;;;5072856;28;20172;-72
2023/03/13 04:15:33;;;;;;;3.43;2.87;;;13.70;99.90;;;;;;5072143;28;20231;-72
2023/03/13 04:17:59;;;;;;;4.87;2.80;;;13.60;99.90;;;;;;5072172;28;20183;-73
2023/03/13 04:20:25;;;;;;;4.00;2.97;;;13.60;99.90;;;;;;5054238;28;20663;-73
2023/03/13 04:22:50;;;;;;;7.90;3.10;;;13.70;99.90;;;;;;5072529;28;20260;-73
2023/03/13 04:25:16;;;;;;;5.97;3.23;;;13.70;99.90;;;;;;5057010;28;20181;-73
2023/03/13 04:27:45;;;;;;;4.07;3.07;;;13.70;99.90;;;;;;5076450;28;20188;-73
2023/03/13 04:30:11;;;;;;;4.77;3.07;;;13.70;99.90;;;;;;5075829;28;20647;-72
2023/03/13 04:32:36;;;;;;;4.27;3.13;;;13.70;99.90;;;;;;5075696;28;20169;-73
2023/03/13 04:35:02;;;;;;;5.97;2.83;;;13.70;99.90;;;;;;5076000;28;20188;-71
2023/03/13 04:37:28;;;;;;;4.40;2.70;;;13.80;99.90;;;;;;5076234;28;20165;-73
2023/03/13 04:39:53;;;;;;;6.60;3.00;;;13.80;99.90;;;;;;5057994;28;20208;-72
2023/03/13 04:42:19;;;;;;;5.57;2.90;;;13.90;99.90;;;;;;5075952;28;20197;-72
2023/03/13 04:44:44;;;;;;;5.40;2.63;;;13.90;99.90;;;;;;5075638;28;20643;-72
2023/03/13 04:47:10;;;;;;;4.57;2.93;;;13.90;99.90;;;;;;5075373;28;20659;-71
2023/03/13 04:49:36;;;;;;;5.03;3.20;;;14.00;99.90;;;;;;5076051;28;20243;-73
2023/03/13 04:52:01;;;;;;;6.30;3.40;;;14.00;99.90;;;;;;5075905;28;20208;-73
2023/03/13 04:54:27;;;;;;;5.50;3.10;;;13.90;99.90;;;;;;5075227;28;20276;-73
2023/03/13 04:56:56;;;;;;;6.13;3.03;;;13.90;99.90;;;;;;5075365;28;20180;-73
2023/03/13 04:59:21;;;;;;;7.73;3.30;;;13.90;99.90;;;;;;5075463;28;20173;-73
2023/03/13 05:01:49;;;;;;;4.37;3.03;;;14.00;99.90;;;;;;5075171;28;20279;-73
2023/03/13 05:04:15;;;;;;;6.37;3.10;;;13.90;99.90;;;;;;5075651;28;20212;-73
2023/03/13 05:06:40;;;;;;;7.20;2.57;;;13.90;99.90;;;;;;5057296;28;20211;-73
2023/03/13 05:09:09;;;;;;;5.03;2.73;;;13.90;99.90;;;;;;5057196;28;20353;-73
2023/03/13 05:11:35;;;;;;;6.70;2.87;;;13.90;99.90;;;;;;5074940;28;20176;-72
2023/03/13 05:14:01;;;;;;;8.73;3.40;;;13.90;99.90;;;;;;5074178;28;20235;-71
2023/03/13 05:16:26;;;;;;;6.77;3.00;;;13.90;99.90;;;;;;5074985;28;20562;-72
2023/03/13 05:18:52;;;;;;;7.40;2.97;;;13.90;99.90;;;;;;5075116;28;20523;-72
2023/03/13 05:21:18;;;;;;;6.03;2.80;;;13.90;99.90;;;;;;5074679;28;20297;-72
2023/03/13 05:23:44;;;;;;;7.57;3.27;;;13.90;99.90;;;;;;5075221;28;20168;-73
2023/03/13 05:26:12;;;;;;;6.17;3.37;;;14.00;99.90;;;;;;5056651;28;20187;-73
2023/03/13 05:28:38;;;;;;;5.23;3.20;;;13.90;99.90;;;;;;5074875;28;20197;-72
2023/03/13 05:31:03;;;;;;;6.77;3.03;;;13.90;99.90;;;;;;5074977;28;20581;-73
2023/03/13 05:33:29;;;;;;;4.83;3.30;;;13.90;99.90;;;;;;5074336;28;20627;-73
2023/03/13 05:35:55;;;;;;;7.00;3.67;;;13.90;99.90;;;;;;5074105;28;20169;-73
2023/03/13 05:38:20;;;;;;;5.50;3.17;;;13.90;99.90;;;;;;5056667;28;20177;-74
2023/03/13 05:40:48;;;;;;;8.70;3.43;;;13.90;99.90;;;;;;5056682;28;20231;-72
2023/03/13 05:43:14;;;;;;;7.00;3.73;;;13.90;99.90;;;;;;5073712;28;20202;-72
2023/03/13 05:45:39;;;;;;;6.67;3.17;;;13.90;99.90;;;;;;5074482;28;20562;-73
2023/03/13 05:48:05;;;;;;;6.97;3.23;;;13.90;99.90;;;;;;5074211;28;20190;-72
2023/03/13 05:50:52;;;;;;;6.57;3.40;;;13.90;99.90;;;;;;5074494;28;20177;-71
2023/03/13 05:53:17;;;;;;;4.07;2.80;;;13.90;99.90;;;;;;5073972;28;20228;-73
2023/03/13 05:55:43;;;;;;;6.10;3.23;;;13.90;99.90;;;;;;5074141;28;20192;-73
2023/03/13 05:58:08;;;;;;;9.83;3.23;;;13.90;99.90;;;;;;5074138;28;20628;-73
2023/03/13 06:00:34;;;;;;;9.53;3.60;;;14.00;99.90;;;;;;5073220;28;20624;-72
2023/03/13 06:03:00;;;;;;;7.83;3.10;;;14.00;99.90;;;;;;5073266;28;20176;-72
2023/03/13 06:05:25;;;;;;;7.17;3.00;;;14.00;99.90;;;;;;5073625;28;20168;-71
2023/03/13 06:07:51;;;;;;;6.03;3.10;;;14.00;99.90;;;;;;5073883;28;20226;-73
2023/03/13 06:10:17;;;;;;;9.47;3.50;;;14.00;99.90;;;;;;5055466;28;20288;-74
2023/03/13 06:12:42;;;;;;;8.87;3.30;;;14.10;99.90;;;;;;5073402;28;20544;-73
2023/03/13 06:15:08;;;;;;;7.23;3.53;;;14.00;99.90;;;;;;5051953;28;20722;-72
2023/03/13 06:17:35;;;;;;;8.50;3.60;;;14.00;99.90;;;;;;5053636;28;20219;-73
2023/03/13 06:20:01;;;;;;;5.93;3.10;;;14.10;99.90;;;;;;5053657;28;20691;-72
2023/03/13 06:22:27;;;;;;;8.17;3.17;;;14.10;99.20;;;;;;5053389;28;20248;-72
2023/03/13 06:24:52;;;;;;;9.20;3.30;;;14.10;98.50;;;;;;5053430;28;20612;-73
2023/03/13 06:27:18;;;;;;;7.70;3.30;;;14.00;99.30;;;;;;5053179;28;20639;-72
2023/03/13 06:29:44;;;;;;;9.00;3.20;;;14.10;97.00;;;;;;5053587;28;20276;-71
2023/03/13 06:32:10;;;;;;;11.33;3.57;;;14.10;97.20;;;;;;5053162;28;20678;-72
2023/03/13 06:34:36;;;;;;;11.97;3.57;;;14.10;96.30;;;;;;5052703;28;20162;-72
2023/03/13 06:37:02;;;;;;;9.93;3.70;;;14.10;96.70;;;;;;5051606;28;20185;-72
2023/03/13 06:39:29;;;;;;;6.87;3.67;;;14.20;93.50;;;;;;5051987;28;20241;-72
2023/03/13 06:41:55;;;;;;;7.73;3.43;;;14.20;93.20;;;;;;5051940;28;20709;-72
2023/03/13 06:44:20;;;;;;;10.57;3.60;;;14.20;90.90;;;;;;5052236;28;20173;-72
2023/03/13 06:46:46;;;;;;;7.30;3.20;;;14.20;91.00;;;;;;5051430;28;20177;-72
2023/03/13 06:49:12;;;;;;;8.30;3.50;;;14.20;91.10;;;;;;5051883;28;20173;-71
2023/03/13 06:51:37;;;;;;;7.50;3.70;;;14.20;90.10;;;;;;5052243;28;20181;-73
2023/03/13 06:54:06;;;;;;;6.50;3.03;;;14.20;91.60;;;;;;5052599;28;20170;-73
2023/03/13 06:56:32;;;;;;;6.57;3.60;;;14.20;91.80;;;;;;5052034;28;20173;-73
2023/03/13 06:58:57;;;;;;;8.67;3.10;;;14.30;90.40;;;;;;5051416;28;20177;-72
2023/03/13 07:01:23;;;;;;;8.10;3.60;;;14.30;85.10;;;;;;5052456;28;20295;-73
2023/03/13 07:03:51;;;;;;;9.13;3.20;;;14.30;86.30;;;;;;5051867;28;20314;-73
2023/03/13 07:06:17;;;;;;;6.90;3.40;;;14.30;84.40;;;;;;5051384;28;20264;-73
2023/03/13 07:08:43;;;;;;;8.37;3.50;;;14.30;84.70;;;;;;5052202;28;20246;-73
2023/03/13 07:11:11;;;;;;;6.67;3.70;;;14.40;79.80;;;;;;5051695;28;20170;-73
2023/03/13 07:13:37;;;;;;;9.43;3.70;;;14.40;81.30;;;;;;5053392;28;20306;-73
2023/03/13 07:16:04;;;;;;;12.57;3.53;;;14.40;79.50;;;;;;5071526;28;20237;-72
2023/03/13 07:18:31;;;;;;;9.90;3.73;;;14.50;77.10;;;;;;5072481;28;20401;-72
2023/03/13 07:20:58;;;;;;;8.30;3.53;;;14.50;81.90;;;;;;5071356;28;20220;-73
2023/03/13 07:23:28;;;;;;;8.97;3.20;;;14.50;76.80;;;;;;5071743;28;20169;-74
2023/03/13 07:25:56;;;;;;;6.13;3.40;;;14.50;75.70;;;;;;5071942;28;20169;-74
2023/03/13 07:28:23;;;;;;;8.00;3.60;;;14.50;77.50;;;;;;5071245;28;20165;-74
2023/03/13 07:30:49;;;;;;;9.70;3.37;;;14.50;74.80;;;;;;5070528;28;20169;-72
2023/03/13 07:33:15;;;;;;;6.63;3.30;;;14.60;71.90;;;;;;5071349;28;20171;-73
2023/03/13 07:35:48;;;;;;;10.00;3.37;;;14.60;72.40;;;;;;5070433;28;20176;-72
2023/03/13 07:38:13;;;;;;;6.53;3.40;;;14.50;78.30;;;;;;5070919;28;20256;-72
2023/03/13 07:40:39;;;;;;;5.77;3.30;;;14.50;85.90;;;;;;5070723;28;20196;-73
2023/03/13 07:43:04;;;;;;;5.47;3.03;;;14.50;90.60;;;;;;5071590;28;20167;-73
2023/03/13 07:45:30;;;;;;;6.63;3.10;;;14.60;93.10;;;;;;5071193;28;20552;-73
2023/03/13 07:47:56;;;;;;;10.67;3.77;;;14.80;81.70;;;;;;5071539;28;20168;-74
2023/03/13 07:50:21;;;;;;;7.27;3.40;;;14.90;72.50;;;;;;5071389;28;20307;-73
2023/03/13 07:52:47;;;;;;;6.30;3.47;;;14.90;70.70;;;;;;5070635;28;20252;-73
2023/03/13 07:55:12;;;;;;;7.93;3.40;;;14.80;87.90;;;;;;5071945;28;20659;-73
2023/03/13 07:57:38;;;;;;;8.33;3.70;;;14.70;93.10;;;;;;5072295;28;20222;-73
2023/03/13 08:00:08;;;;;;;6.37;3.37;;;14.70;93.70;;;;;;5075003;28;20200;-74
2023/03/13 08:02:34;;;;;;;9.20;3.17;;;14.70;96.70;;;;;;5075669;28;20180;-72
2023/03/13 08:04:59;;;;;;;5.13;3.43;;;14.70;98.60;;;;;;5075041;28;20573;-74
2023/03/13 08:07:25;;;;;;;5.50;3.53;;;14.60;99.90;;;;;;5075962;28;20184;-72
2023/03/13 08:09:51;;;;;;;6.50;3.07;;;14.40;99.90;;;;;;5075409;28;20657;-72
2023/03/13 08:12:16;;;;;;;5.20;3.40;;;14.30;99.90;;;;;;5075584;28;20179;-74
2023/03/13 08:14:42;;;;;;;7.77;3.67;;;14.40;99.90;;;;;;5074326;28;20686;-72
2023/03/13 08:17:08;;;;;;;5.67;3.63;;;14.60;99.90;;;;;;5075189;28;20181;-73
2023/03/13 08:19:33;;;;;;;6.37;3.37;;;15.00;99.90;;;;;;5073863;28;20537;-72
2023/03/13 08:21:59;;;;;;;4.33;2.80;;;15.20;95.80;;;;;;5049452;28;20314;-71
2023/03/13 08:24:24;;;;;;;5.17;3.10;;;15.60;78.60;;;;;;5071658;28;20183;-70
2023/03/13 08:26:50;;;;;;;4.77;3.20;;;15.60;69.10;;;;;;5073745;28;20499;-70
2023/03/13 08:29:16;;;;;;;4.43;3.00;;;15.60;70.10;;;;;;5062546;28;20191;-68
2023/03/13 08:31:44;;;;;;;4.07;3.37;;;15.40;82.70;;;;;;5044444;28;20191;-69
2023/03/13 08:34:11;;;;;;;7.33;3.33;;;15.20;93.90;;;;;;5090351;28;20183;-70
2023/03/13 08:36:37;;;;;;;5.47;3.43;;;15.20;92.70;;;;;;5088921;28;20185;-70
2023/03/13 08:39:17;;;;;;;4.93;3.00;;;15.40;88.40;;;;;;5077942;28;20244;-69
2023/03/13 08:41:43;;;;;;;4.27;2.90;;;15.50;81.20;;;;;;5077444;28;20226;-69
2023/03/13 08:44:14;;;;;;;6.53;3.20;;;15.70;78.20;;;;;;5071224;28;20188;-71
2023/03/13 08:46:40;;;;;;;6.93;3.23;;;15.90;67.80;;;;;;5052157;28;20172;-71
2023/03/13 08:49:06;;;;;;;6.47;2.90;;;16.60;46.80;;;;;;5065466;28;20192;-71
2023/03/13 08:51:33;;;;;;;4.67;2.67;;;16.90;24.40;;;;;;5084504;28;20218;-71
2023/03/13 08:54:00;;;;;;;5.27;2.90;;;16.80;22.70;;;;;;5089519;28;20175;-71
2023/03/13 08:56:29;;;;;;;6.00;3.10;;;16.60;26.10;;;;;;5077716;28;20183;-71
2023/03/13 08:58:57;;;;;;;5.60;2.93;;;16.50;33.00;;;;;;5077021;28;20271;-70
2023/03/13 09:01:25;;;;;;;4.60;2.70;;;16.50;30.60;;;;;;5056640;28;20616;-70
2023/03/13 09:03:51;;;;;;;7.23;2.93;;;16.50;30.20;;;;;;5074208;28;20181;-70
2023/03/13 09:06:17;;;;;;;6.30;3.03;;;16.50;30.80;;;;;;5074216;28;20184;-70
2023/03/13 09:08:43;;;;;;;3.87;2.70;;;16.30;37.90;;;;;;5078267;28;20256;-70
2023/03/13 09:11:14;;;;;;;6.73;2.47;;;16.20;43.40;;;;;;5080427;28;20218;-71
2023/03/13 09:13:43;;;;;;;3.40;2.70;;;16.20;41.10;;;;;;5078867;28;20224;-68
2023/03/13 09:16:12;;;;;;;9.00;2.80;;;16.10;43.60;;;;;;5080964;28;20219;-70
2023/03/13 09:18:38;;;;;;;7.27;2.77;;;16.10;49.10;;;;;;5063384;28;20168;-69
2023/03/13 09:21:08;;;;;;;6.07;3.10;;;16.20;42.80;;;;;;5079256;28;20215;-69
2023/03/13 09:23:34;;;;;;;2.58;2.38;;;16.50;29.90;;;;;;5081044;28;20176;-71
2023/03/13 09:26:00;;;;;;;4.95;2.50;;;16.70;26.10;;;;;;5081045;28;20172;-72
2023/03/13 09:28:26;;;;;;;4.05;2.17;;;16.90;18.70;;;;;;5086344;28;20194;-71
2023/03/13 09:30:52;;;;;;;3.53;2.75;;;16.80;14.60;;;;;;5078717;28;20195;-73
2023/03/13 09:33:19;;;;;;;5.27;2.30;;;16.90;13.60;;;;;;5071354;28;20183;-71
2023/03/13 09:35:49;;;;;;;2.75;2.08;;;16.90;9.90;;;;;;5076105;28;20176;-71
2023/03/13 09:38:16;;;;;;;5.85;2.30;;;16.90;10.00;;;;;;5079852;28;20685;-70
2023/03/13 09:40:46;;;;;;;4.88;2.28;;;16.80;11.80;;;;;;5089159;28;20561;-71
2023/03/13 09:43:42;;;;;;;3.83;2.23;;;16.60;17.20;;;;;;5064291;28;20180;-72
2023/03/13 09:46:15;;;;;;;3.00;2.13;;;16.60;13.60;;;;;;5052951;28;20242;-71
2023/03/13 09:48:51;;;;;;;3.70;2.17;;;16.40;18.50;;;;;;5077056;28;20172;-70
2023/03/13 09:51:20;;;;;;;5.03;2.53;;;16.50;20.20;;;;;;5078117;28;20176;-71
2023/03/13 09:54:01;;;;;;;5.90;2.17;;;17.10;11.30;;;;;;5084778;28;20204;-73
2023/03/13 09:56:37;;;;;;;2.90;1.80;;;18.10;1.00;;;;;;5073291;28;20180;-71
2023/03/13 09:59:17;;;;;;;4.60;1.88;;;18.50;1.00;;;;;;5076904;28;20182;-69
2023/03/13 10:01:52;;;;;;;4.00;2.10;;;18.40;1.00;;;;;;5079419;28;20204;-69
2023/03/13 10:04:18;;;;;;;2.97;2.03;;;18.50;1.00;;;;;;5076491;28;20169;-70
2023/03/13 10:06:47;;;;;;;3.50;2.00;;;18.70;1.00;;;;;;5077098;28;20183;-69
2023/03/13 10:09:19;;;;;;;5.32;2.05;;;19.10;1.00;;;;;;5081510;28;20198;-71
2023/03/13 10:11:57;;;;;;;2.55;1.88;;;19.40;1.00;;;;;;5066030;28;20212;-70
2023/03/13 10:14:28;;;;;;;2.83;1.83;;;19.20;1.00;;;;;;5080372;28;20325;-71
2023/03/13 10:17:13;;;;;;;3.20;1.55;;;19.10;1.00;;;;;;5077050;28;20181;-72
2023/03/13 10:19:42;;;;;;;2.05;1.85;;;19.10;1.00;;;;;;5066979;28;20194;-71
2023/03/13 10:22:14;;;;;;;3.45;2.10;;;19.30;1.00;;;;;;5071391;28;20181;-72
2023/03/13 10:24:54;;;;;;;3.97;1.85;;;19.50;1.00;;;;;;5070282;28;20173;-70
2023/03/13 10:27:20;;;;;;;5.13;1.83;;;19.30;1.00;;;;;;5074557;28;20199;-72
2023/03/13 10:29:45;;;;;;;3.47;1.90;;;19.30;1.00;;;;;;5085353;28;20600;-73
2023/03/13 10:32:14;;;;;;;4.13;1.80;;;19.60;1.00;;;;;;5074196;28;20533;-75
2023/03/13 10:34:54;;;;;;;5.13;2.08;;;19.30;1.00;;;;;;5071915;28;20167;-74
2023/03/13 10:37:28;;;;;;;2.05;1.75;;;18.90;1.00;;;;;;5059717;28;20540;-72
2023/03/13 10:40:09;;;;;;;3.15;1.92;;;18.40;1.00;;;;;;5069172;28;20211;-75
2023/03/13 10:42:41;;;;;;;5.13;2.33;;;18.50;1.00;;;;;;5060984;28;20156;-75
2023/03/13 10:45:12;;;;;;;2.38;2.00;;;18.20;1.00;;;;;;5083904;28;20187;-76
2023/03/13 10:47:38;;;;;;;4.70;1.80;;;17.80;1.00;;;;;;5067511;28;20185;-75
2023/03/13 10:50:16;;;;;;;2.72;1.85;;;17.80;1.00;;;;;;5081581;28;20336;-75
2023/03/13 10:52:46;;;;;;;4.05;1.80;;;18.00;1.00;;;;;;5046094;28;20183;-74
2023/03/13 10:55:23;;;;;;;5.75;1.60;;;18.30;1.00;;;;;;5081275;28;20690;-74
2023/03/13 10:58:01;;;;;;;5.35;1.73;;;18.20;1.00;;;;;;5076749;28;20176;-76
2023/03/13 11:00:30;;;;;;;4.03;1.92;;;18.40;1.00;;;;;;5071961;28;20218;-74
2023/03/13 11:02:55;;;;;;;2.60;1.85;;;18.60;1.00;;;;;;5065929;28;20273;-74
2023/03/13 11:05:44;;;;;;;3.63;1.60;;;19.10;1.00;;;;;;5063789;28;20211;-74
2023/03/13 11:08:15;;;;;;;3.78;1.80;;;18.70;1.00;;;;;;5072729;28;20192;-71
2023/03/13 11:11:00;;;;;;;4.57;2.05;;;19.00;1.00;;;;;;5077731;28;20172;-74
2023/03/13 11:13:41;;;;;;;3.28;1.80;;;19.40;1.00;;;;;;5071860;28;20658;-74
2023/03/13 11:16:07;;;;;;;3.28;1.63;;;19.90;1.00;;;;;;5074766;28;20701;-73
2023/03/13 11:19:18;;;;;;;4.82;1.42;;;19.90;1.00;;;;;;5060733;28;20184;-74
2023/03/13 11:22:00;;;;;;;2.55;1.58;;;20.20;99.90;;;;;;5067497;28;20208;-74
2023/03/13 11:24:29;;;;;;;2.35;1.70;;;20.50;99.90;;;;;;5074707;28;20627;-73
2023/03/13 11:27:30;;;;;;;3.63;1.88;;;20.70;99.90;;;;;;5054845;28;20278;-73
2023/03/13 11:29:59;;;;;;;3.17;1.80;;;20.40;99.90;;;;;;5074081;28;20627;-72
2023/03/13 11:32:49;;;;;;;4.13;2.00;;;20.10;1.00;;;;;;5065530;28;20168;-73
2023/03/13 11:35:26;;;;;;;5.38;3.33;;;19.30;1.00;;;;;;5020809;28;20193;-74
2023/03/13 11:37:55;;;;;;;3.92;3.13;;;18.50;1.00;;;;;;5077108;28;20677;-74
2023/03/13 11:40:30;;;;;;;4.35;2.20;;;18.30;1.00;;;;;;5052208;28;20289;-74
2023/03/13 11:43:21;;;;;;;1.58;1.42;;;18.80;1.00;;;;;;5069653;28;20178;-73
2023/03/13 11:45:59;;;;;;;2.35;1.60;;;18.80;1.00;;;;;;5066912;28;20177;-74
2023/03/13 11:48:42;;;;;;;2.28;1.20;;;18.30;1.00;;;;;;5071769;28;20588;-74
2023/03/13 11:51:38;;;;;;;1.90;1.60;;;18.00;1.00;;;;;;5091159;28;20201;-74
2023/03/13 11:54:40;;;;;;;5.95;1.50;;;17.70;1.00;;;;;;5090971;28;20176;-73
2023/03/13 11:57:40;;;;;;;4.43;1.50;;;17.70;1.00;;;;;;5091995;28;20178;-73
2023/03/13 12:00:06;;;;;;;1.95;1.60;;;17.70;1.00;;;;;;5091603;28;20214;-73
2023/03/13 12:02:44;;;;;;;2.95;1.95;;;17.70;1.00;;;;;;5066712;28;20276;-73
2023/03/13 12:05:15;;;;;;;2.88;1.60;;;18.10;1.00;;;;;;5065316;28;20168;-72
2023/03/13 12:08:05;;;;;;;7.90;1.55;;;18.30;1.00;;;;;;5071259;28;20255;-73
2023/03/13 12:10:46;;;;;;;5.85;1.70;;;18.40;1.00;;;;;;5071172;28;20201;-73
2023/03/13 12:13:34;;;;;;;2.58;1.77;;;18.60;1.00;;;;;;5069492;28;20279;-74
2023/03/13 12:16:13;;;;;;;5.35;2.28;;;18.70;1.00;;;;;;5070279;28;20244;-73
2023/03/13 12:18:41;;;;;;;4.90;1.70;;;18.30;1.00;;;;;;5070452;28;20625;-73
2023/03/13 12:21:36;;;;;;;3.35;1.40;;;18.30;1.00;;;;;;5071820;28;20278;-74
2023/03/13 12:24:27;;;;;;;2.80;1.75;;;18.30;1.00;;;;;;5070237;28;20582;-72
2023/03/13 12:27:18;;;;;;;2.20;1.50;;;18.30;1.00;;;;;;5068024;28;20173;-74
2023/03/13 12:30:05;;;;;;;4.07;1.52;;;18.50;1.00;;;;;;5075215;28;20200;-73
2023/03/13 12:33:00;;;;;;;3.05;1.40;;;18.30;1.00;;;;;;5077881;28;20179;-72
2023/03/13 12:35:28;;;;;;;3.63;1.73;;;18.40;1.00;;;;;;5064158;28;20176;-71
2023/03/13 12:38:06;;;;;;;1.60;1.30;;;18.50;1.00;;;;;;5071087;28;20191;-71
2023/03/13 12:40:46;;;;;;;5.57;1.55;;;18.60;1.00;;;;;;5053180;28;20208;-72
2023/03/13 12:43:22;;;;;;;1.95;1.30;;;18.40;1.00;;;;;;5065220;28;20183;-72
2023/03/13 12:46:00;;;;;;;4.13;1.83;;;18.40;1.00;;;;;;5070527;28;20172;-71
2023/03/13 12:48:29;;;;;;;4.00;1.70;;;18.50;1.00;;;;;;5074808;28;20248;-70
2023/03/13 12:51:19;;;;;;;2.00;1.50;;;18.50;1.00;;;;;;5067841;28;20189;-71
2023/03/13 12:54:06;;;;;;;2.65;1.40;;;18.40;1.00;;;;;;5075197;28;20639;-69
2023/03/13 12:56:53;;;;;;;8.05;1.60;;;18.00;1.00;;;;;;5070501;28;20196;-72
2023/03/13 12:59:24;;;;;;;2.85;1.60;;;18.10;1.00;;;;;;5060632;28;20184;-70
2023/03/13 13:01:52;;;;;;;3.45;1.30;;;18.20;1.00;;;;;;5076985;28;20199;-71
2023/03/13 13:04:25;;;;;;;3.10;1.50;;;18.10;1.00;;;;;;5082125;28;20631;-70